Time;durP1;ratioP1;P1;durP2;ratioP2;P2;SDS_P1;SDS_P2;PMS_P1;PMS_P2;Temp;Humidity;BMP_temperature;BMP_pressure;BME280_temperature;BME280_humidity;BME280_pressure;Samples;Min_cycle;Max_cycle;Signal;HPM_P1;HPM_P2
2021/03/07 00:01:34;;;;;;;7.57;6.77;;;;;;;;;;5031531;28;20206;-73
2021/03/07 00:04:00;;;;;;;6.87;6.20;;;;;;;;;;5032357;28;20232;-73
2021/03/07 00:06:26;;;;;;;7.43;6.73;;;;;;;;;;5030085;28;20170;-72
2021/03/07 00:08:52;;;;;;;7.13;6.47;;;;;;;;;;5031751;28;20186;-73
2021/03/07 00:11:18;;;;;;;7.37;6.67;;;;;;;;;;5030356;28;20194;-73
2021/03/07 00:13:44;;;;;;;7.13;6.53;;;;;;;;;;5030320;28;20252;-73
2021/03/07 00:16:10;;;;;;;7.13;6.30;;;;;;;;;;5029789;28;20177;-73
2021/03/07 00:18:36;;;;;;;7.00;6.40;;;;;;;;;;5031309;28;20240;-73
2021/03/07 00:21:02;;;;;;;7.30;6.60;;;;;;;;;;5030134;28;20623;-73
2021/03/07 00:23:28;;;;;;;7.53;6.83;;;;;;;;;;5032286;28;20779;-72
2021/03/07 00:25:54;;;;;;;6.63;5.77;;;;;;;;;;5029882;28;20261;-73
2021/03/07 00:28:20;;;;;;;6.90;6.20;;;;;;;;;;5031335;28;20265;-73
2021/03/07 00:30:46;;;;;;;7.03;6.33;;;;;;;;;;5031273;28;20731;-72
2021/03/07 00:33:12;;;;;;;6.77;6.07;;;;;;;;;;5031440;28;20202;-73
2021/03/07 00:35:38;;;;;;;7.53;6.10;;;;;;;;;;5031340;28;20178;-73
2021/03/07 00:38:05;;;;;;;6.57;5.90;;;;;;;;;;5031382;28;20641;-72
2021/03/07 00:40:31;;;;;;;7.27;6.13;;;;;;;;;;5031706;28;20182;-73
2021/03/07 00:42:58;;;;;;;6.93;6.23;;;;;;;;;;5031706;28;20211;-73
2021/03/07 00:45:24;;;;;;;7.03;6.37;;;;;;;;;;5026357;28;20183;-72
2021/03/07 00:47:50;;;;;;;6.67;6.10;;;;;;;;;;5030831;28;20190;-73
2021/03/07 00:50:17;;;;;;;6.50;5.90;;;;;;;;;;5030152;28;20779;-73
2021/03/07 00:52:43;;;;;;;7.10;6.40;;;;;;;;;;5030961;28;20277;-73
2021/03/07 00:55:09;;;;;;;7.33;6.23;;;;;;;;;;5030781;28;20182;-73
2021/03/07 00:57:36;;;;;;;7.10;6.40;;;;;;;;;;5022706;28;20178;-73
2021/03/07 01:00:06;;;;;;;6.87;6.17;;;;;;;;;;5030618;28;20171;-72
2021/03/07 01:02:32;;;;;;;7.20;6.40;;;;;;;;;;5030678;28;20241;-72
2021/03/07 01:04:59;;;;;;;7.87;6.80;;;;;;;;;;5028904;28;20231;-73
2021/03/07 01:07:25;;;;;;;7.27;6.43;;;;;;;;;;5030072;28;20207;-73
2021/03/07 01:09:51;;;;;;;7.50;6.80;;;;;;;;;;5027150;28;20260;-73
2021/03/07 01:12:17;;;;;;;8.60;7.17;;;;;;;;;;5029646;28;20202;-72
2021/03/07 01:14:43;;;;;;;8.17;6.90;;;;;;;;;;5029003;28;20182;-73
2021/03/07 01:17:09;;;;;;;9.93;6.80;;;;;;;;;;5029500;28;20175;-73
2021/03/07 01:19:36;;;;;;;7.07;6.47;;;;;;;;;;5030908;28;21590;-71
2021/03/07 01:22:02;;;;;;;7.63;6.83;;;;;;;;;;5030746;28;20174;-72
2021/03/07 01:24:28;;;;;;;7.67;6.90;;;;;;;;;;5034852;28;20178;-73
2021/03/07 01:26:54;;;;;;;9.47;5.73;;;;;;;;;;5036065;28;20633;-72
2021/03/07 01:29:20;;;;;;;6.70;6.10;;;;;;;;;;5040141;28;20186;-72
2021/03/07 01:31:46;;;;;;;8.13;6.13;;;;;;;;;;5039362;28;20194;-72
2021/03/07 01:34:13;;;;;;;7.03;6.33;;;;;;;;;;5040273;28;20689;-72
2021/03/07 01:36:39;;;;;;;6.43;5.90;;;;;;;;;;5040358;28;20261;-73
2021/03/07 01:39:06;;;;;;;6.93;6.27;;;;;;;;;;5039967;28;20182;-72
2021/03/07 01:41:32;;;;;;;7.83;7.07;;;;;;;;;;5040686;28;20179;-72
2021/03/07 01:43:58;;;;;;;9.97;7.20;;;;;;;;;;5040327;28;20715;-72
2021/03/07 01:46:24;;;;;;;6.70;6.10;;;;;;;;;;5040391;28;20232;-74
2021/03/07 01:48:50;;;;;;;6.97;6.33;;;;;;;;;;5039217;28;20193;-73
2021/03/07 01:51:20;;;;;;;7.40;6.70;;;;;;;;;;5040647;28;20198;-71
2021/03/07 01:53:46;;;;;;;7.43;6.40;;;;;;;;;;5039966;28;20217;-71
2021/03/07 01:56:13;;;;;;;7.37;6.67;;;;;;;;;;5038870;28;20174;-71
2021/03/07 01:58:41;;;;;;;7.00;6.37;;;;;;;;;;5032886;28;20186;-71
2021/03/07 02:01:07;;;;;;;7.27;6.57;;;;;;;;;;5031137;28;20177;-71
2021/03/07 02:03:34;;;;;;;7.53;6.60;;;;;;;;;;5035654;28;20576;-71
2021/03/07 02:06:00;;;;;;;7.10;6.40;;;;;;;;;;5035900;28;20189;-72
2021/03/07 02:08:26;;;;;;;7.73;7.00;;;;;;;;;;5035926;28;20182;-71
2021/03/07 02:10:52;;;;;;;7.13;6.53;;;;;;;;;;5032862;28;20561;-72
2021/03/07 02:13:23;;;;;;;10.83;7.37;;;;;;;;;;5035732;28;20194;-71
2021/03/07 02:15:53;;;;;;;6.70;6.10;;;;;;;;;;5035841;28;20227;-72
2021/03/07 02:18:19;;;;;;;6.90;5.87;;;;;;;;;;5042547;28;20181;-71
2021/03/07 02:20:58;;;;;;;7.53;6.83;;;;;;;;;;5055759;28;20583;-72
2021/03/07 02:23:25;;;;;;;7.70;6.90;;;;;;;;;;5055345;28;20201;-72
2021/03/07 02:25:52;;;;;;;7.80;7.00;;;;;;;;;;5055338;28;20181;-72
2021/03/07 02:28:19;;;;;;;8.27;7.47;;;;;;;;;;5054230;28;20663;-72
2021/03/07 02:30:45;;;;;;;7.57;6.87;;;;;;;;;;5055458;28;20566;-72
2021/03/07 02:33:14;;;;;;;7.00;6.30;;;;;;;;;;5055105;28;20664;-72
2021/03/07 02:35:43;;;;;;;7.53;6.77;;;;;;;;;;5055246;28;20529;-72
2021/03/07 02:38:10;;;;;;;7.37;6.27;;;;;;;;;;5031869;28;20185;-71
2021/03/07 02:40:36;;;;;;;7.17;6.47;;;;;;;;;;5032142;28;20178;-72
2021/03/07 02:43:03;;;;;;;7.10;6.40;;;;;;;;;;5033838;28;20202;-72
2021/03/07 02:45:30;;;;;;;7.00;6.30;;;;;;;;;;5032438;28;20526;-72
2021/03/07 02:47:56;;;;;;;7.83;6.50;;;;;;;;;;5034690;28;20182;-72
2021/03/07 02:50:24;;;;;;;7.33;6.17;;;;;;;;;;5033006;28;20219;-71
2021/03/07 02:52:54;;;;;;;6.97;6.27;;;;;;;;;;5034802;28;20198;-71
2021/03/07 02:55:21;;;;;;;7.30;6.60;;;;;;;;;;5034144;28;20179;-71
2021/03/07 02:57:47;;;;;;;6.97;6.27;;;;;;;;;;5035518;28;20166;-72
2021/03/07 03:00:13;;;;;;;7.33;6.63;;;;;;;;;;5035658;28;20221;-71
2021/03/07 03:02:41;;;;;;;8.07;7.27;;;;;;;;;;5035709;28;20265;-72
2021/03/07 03:05:09;;;;;;;7.40;6.70;;;;;;;;;;5035369;28;20258;-72
2021/03/07 03:07:35;;;;;;;7.47;6.77;;;;;;;;;;5034851;28;20167;-72
2021/03/07 03:10:03;;;;;;;6.90;6.30;;;;;;;;;;5034506;28;20171;-72
2021/03/07 03:12:30;;;;;;;7.40;6.20;;;;;;;;;;5033777;28;20218;-72
2021/03/07 03:14:57;;;;;;;6.97;6.13;;;;;;;;;;5033043;28;20185;-72
2021/03/07 03:17:25;;;;;;;7.40;6.70;;;;;;;;;;5034333;28;20641;-72
2021/03/07 03:19:51;;;;;;;6.90;6.20;;;;;;;;;;5034380;28;20183;-72
2021/03/07 03:22:18;;;;;;;7.13;6.30;;;;;;;;;;5033853;28;20593;-72
2021/03/07 03:24:44;;;;;;;6.47;5.80;;;;;;;;;;5034225;28;20189;-72
2021/03/07 03:27:11;;;;;;;7.13;6.23;;;;;;;;;;5033992;28;20185;-72
2021/03/07 03:29:39;;;;;;;7.23;6.03;;;;;;;;;;5034194;28;20174;-72
2021/03/07 03:32:05;;;;;;;7.00;6.30;;;;;;;;;;5033882;28;20194;-72
2021/03/07 03:34:31;;;;;;;9.10;6.07;;;;;;;;;;5033982;28;20179;-72
2021/03/07 03:36:57;;;;;;;6.80;6.10;;;;;;;;;;5032502;28;20166;-72
2021/03/07 03:39:24;;;;;;;7.00;6.27;;;;;;;;;;5033884;28;20228;-72
2021/03/07 03:41:52;;;;;;;7.73;6.07;;;;;;;;;;5033759;28;20718;-72
2021/03/07 03:44:21;;;;;;;6.50;5.60;;;;;;;;;;5033729;28;20241;-72
2021/03/07 03:46:49;;;;;;;6.57;5.97;;;;;;;;;;5034009;28;20269;-72
2021/03/07 03:49:18;;;;;;;8.27;6.50;;;;;;;;;;5033701;28;20174;-72
2021/03/07 03:51:45;;;;;;;7.27;6.57;;;;;;;;;;5033654;28;20649;-72
2021/03/07 03:54:11;;;;;;;6.53;5.80;;;;;;;;;;5033639;28;20202;-72
2021/03/07 03:56:38;;;;;;;6.57;5.53;;;;;;;;;;5032326;28;20178;-72
2021/03/07 03:59:04;;;;;;;5.97;5.47;;;;;;;;;;5032124;28;20178;-72
2021/03/07 04:01:32;;;;;;;7.27;6.57;;;;;;;;;;5033584;28;20182;-72
2021/03/07 04:04:02;;;;;;;8.60;6.47;;;;;;;;;;5030241;28;20680;-72
2021/03/07 04:06:29;;;;;;;42.00;16.47;;;;;;;;;;5033774;28;20190;-72
2021/03/07 04:08:56;;;;;;;35.47;14.63;;;;;;;;;;5031955;28;20680;-72
2021/03/07 04:11:22;;;;;;;11.30;7.90;;;;;;;;;;5032014;28;20656;-72
2021/03/07 04:13:48;;;;;;;7.67;6.60;;;;;;;;;;5033541;28;20593;-72
2021/03/07 04:16:15;;;;;;;40.97;15.23;;;;;;;;;;5033202;28;20181;-72
2021/03/07 04:18:41;;;;;;;39.90;15.40;;;;;;;;;;5033473;28;20257;-72
2021/03/07 04:21:08;;;;;;;9.10;7.07;;;;;;;;;;5033083;28;20633;-71
2021/03/07 04:23:34;;;;;;;23.97;11.50;;;;;;;;;;5031585;28;20210;-72
2021/03/07 04:26:01;;;;;;;24.93;11.03;;;;;;;;;;5032475;28;20189;-72
2021/03/07 04:28:27;;;;;;;94.63;25.87;;;;;;;;;;5032837;28;20185;-72
2021/03/07 04:30:54;;;;;;;28.40;11.93;;;;;;;;;;5033108;28;20198;-72
2021/03/07 04:33:20;;;;;;;13.27;7.90;;;;;;;;;;5032859;28;20194;-72
2021/03/07 04:35:46;;;;;;;27.37;11.90;;;;;;;;;;5031607;28;20179;-72
2021/03/07 04:38:13;;;;;;;20.90;10.97;;;;;;;;;;5033128;28;20248;-72
2021/03/07 04:40:40;;;;;;;17.53;9.00;;;;;;;;;;5031847;28;20186;-72
2021/03/07 04:43:07;;;;;;;10.27;7.57;;;;;;;;;;5032833;28;20225;-72
2021/03/07 04:45:33;;;;;;;10.40;7.20;;;;;;;;;;5031186;28;20184;-72
2021/03/07 04:48:00;;;;;;;10.97;6.77;;;;;;;;;;5031476;28;20641;-72
2021/03/07 04:50:26;;;;;;;7.03;6.33;;;;;;;;;;5032495;28;20238;-72
2021/03/07 04:52:52;;;;;;;7.17;6.47;;;;;;;;;;5032571;28;20202;-72
2021/03/07 04:55:18;;;;;;;6.57;5.87;;;;;;;;;;5045271;28;20639;-72
2021/03/07 04:57:44;;;;;;;6.63;5.97;;;;;;;;;;5052460;28;20228;-72
2021/03/07 05:00:14;;;;;;;7.07;6.37;;;;;;;;;;5050968;28;20197;-72
2021/03/07 05:02:40;;;;;;;7.33;6.57;;;;;;;;;;5027898;28;20723;-72
2021/03/07 05:05:07;;;;;;;7.50;6.83;;;;;;;;;;5031809;28;20656;-72
2021/03/07 05:07:33;;;;;;;7.23;6.50;;;;;;;;;;5030206;28;20191;-71
2021/03/07 05:09:59;;;;;;;13.63;10.10;;;;;;;;;;5030258;28;20644;-72
2021/03/07 05:12:25;;;;;;;8.00;7.20;;;;;;;;;;5030303;28;20577;-72
2021/03/07 05:14:51;;;;;;;12.40;9.00;;;;;;;;;;5031994;28;20182;-73
2021/03/07 05:17:17;;;;;;;9.87;8.07;;;;;;;;;;5031999;28;20718;-73
2021/03/07 05:19:44;;;;;;;7.83;6.77;;;;;;;;;;5032190;28;20202;-72
2021/03/07 05:22:10;;;;;;;7.63;6.83;;;;;;;;;;5032186;28;20182;-72
2021/03/07 05:24:37;;;;;;;7.13;6.50;;;;;;;;;;5032431;28;20529;-73
2021/03/07 05:27:06;;;;;;;7.17;6.47;;;;;;;;;;5032109;28;20170;-73
2021/03/07 05:29:36;;;;;;;7.90;7.10;;;;;;;;;;5032265;28;20206;-72
2021/03/07 05:32:02;;;;;;;8.30;7.50;;;;;;;;;;5030763;28;20566;-73
2021/03/07 05:34:28;;;;;;;7.07;6.37;;;;;;;;;;5032254;28;20174;-72
2021/03/07 05:36:55;;;;;;;7.47;6.77;;;;;;;;;;5033841;28;20256;-73
2021/03/07 05:39:21;;;;;;;8.37;6.70;;;;;;;;;;5035745;28;20232;-73
2021/03/07 05:41:48;;;;;;;7.07;6.47;;;;;;;;;;5034037;28;20303;-72
2021/03/07 05:44:14;;;;;;;8.23;7.03;;;;;;;;;;5033234;28;20210;-71
2021/03/07 05:46:40;;;;;;;7.73;6.70;;;;;;;;;;5034366;28;20265;-72
2021/03/07 05:49:06;;;;;;;8.43;7.13;;;;;;;;;;5032594;28;20178;-72
2021/03/07 05:51:32;;;;;;;7.30;6.60;;;;;;;;;;5033574;28;20268;-72
2021/03/07 05:53:59;;;;;;;8.60;6.97;;;;;;;;;;5033474;28;20216;-72
2021/03/07 05:56:26;;;;;;;7.37;6.57;;;;;;;;;;5033834;28;20179;-72
2021/03/07 05:58:53;;;;;;;7.60;6.83;;;;;;;;;;5033135;28;20190;-72
2021/03/07 06:01:20;;;;;;;7.83;6.30;;;;;;;;;;5033289;28;20174;-71
2021/03/07 06:03:46;;;;;;;7.47;6.77;;;;;;;;;;5034369;28;20218;-72
2021/03/07 06:06:12;;;;;;;7.33;6.73;;;;;;;;;;5035233;28;20174;-72
2021/03/07 06:08:38;;;;;;;8.20;6.40;;;;;;;;;;5032411;28;20183;-72
2021/03/07 06:11:04;;;;;;;7.43;6.73;;;;;;;;;;5030570;28;20578;-72
2021/03/07 06:13:38;;;;;;;7.07;6.37;;;;;;;;;;5033627;28;20202;-72
2021/03/07 06:16:08;;;;;;;7.40;6.70;;;;;;;;;;5034401;28;20174;-72
2021/03/07 06:18:44;;;;;;;7.57;6.70;;;;;;;;;;5034536;28;20599;-72
2021/03/07 06:21:29;;;;;;;7.40;6.67;;;;;;;;;;5033938;28;20526;-72
2021/03/07 06:23:56;;;;;;;7.47;6.60;;;;;;;;;;5032985;28;20241;-72
2021/03/07 06:26:22;;;;;;;7.77;6.97;;;;;;;;;;5033778;28;20668;-72
2021/03/07 06:29:05;;;;;;;8.33;7.53;;;;;;;;;;5033546;28;20582;-73
2021/03/07 06:31:31;;;;;;;7.80;6.97;;;;;;;;;;5033836;28;20202;-72
2021/03/07 06:33:58;;;;;;;7.90;7.10;;;;;;;;;;5034520;28;20198;-73
2021/03/07 06:36:25;;;;;;;7.33;6.63;;;;;;;;;;5035411;28;20641;-73
2021/03/07 06:38:56;;;;;;;7.77;6.80;;;;;;;;;;5035168;28;20186;-73
2021/03/07 06:41:23;;;;;;;7.80;7.10;;;;;;;;;;5030454;28;20197;-72
2021/03/07 06:43:50;;;;;;;7.90;7.00;;;;;;;;;;5034864;28;20573;-72
2021/03/07 06:46:29;;;;;;;7.83;6.97;;;;;;;;;;5034929;28;20186;-74
2021/03/07 06:48:55;;;;;;;8.23;6.93;;;;;;;;;;5033965;28;20668;-72
2021/03/07 06:51:25;;;;;;;8.57;6.87;;;;;;;;;;5030606;28;20206;-72
2021/03/07 06:53:51;;;;;;;7.53;6.73;;;;;;;;;;5032952;28;20209;-71
2021/03/07 06:56:31;;;;;;;7.30;6.60;;;;;;;;;;5030506;28;20638;-72
2021/03/07 06:59:16;;;;;;;7.17;6.27;;;;;;;;;;5033053;28;20585;-71
2021/03/07 07:01:43;;;;;;;7.47;6.70;;;;;;;;;;5033025;28;20223;-72
2021/03/07 07:04:10;;;;;;;7.30;6.57;;;;;;;;;;5032472;28;20232;-71
2021/03/07 07:06:38;;;;;;;7.77;7.00;;;;;;;;;;5033055;28;20265;-72
2021/03/07 07:09:06;;;;;;;8.87;7.63;;;;;;;;;;5033132;28;20198;-72
2021/03/07 07:11:48;;;;;;;7.50;6.67;;;;;;;;;;5029819;28;20634;-73
2021/03/07 07:14:29;;;;;;;7.93;7.17;;;;;;;;;;5032393;28;20289;-72
2021/03/07 07:16:55;;;;;;;10.70;7.97;;;;;;;;;;5032375;28;20183;-72
2021/03/07 07:19:22;;;;;;;7.17;6.37;;;;;;;;;;5032810;28;20170;-72
2021/03/07 07:21:48;;;;;;;8.57;6.90;;;;;;;;;;5032442;28;20201;-72
2021/03/07 07:24:15;;;;;;;9.40;7.67;;;;;;;;;;5032851;28;20585;-72
2021/03/07 07:26:40;;;;;;;7.73;7.03;;;;;;;;;;5032383;28;20228;-72
2021/03/07 07:29:08;;;;;;;7.77;6.80;;;;;;;;;;5033585;28;20596;-71
2021/03/07 07:31:37;;;;;;;7.40;6.70;;;;;;;;;;5032859;28;20312;-73
2021/03/07 07:34:10;;;;;;;7.63;6.60;;;;;;;;;;5034086;28;20226;-72
2021/03/07 07:36:48;;;;;;;7.57;6.60;;;;;;;;;;5034107;28;20535;-72
2021/03/07 07:39:16;;;;;;;7.23;6.53;;;;;;;;;;5032996;28;20652;-72
2021/03/07 07:41:42;;;;;;;8.53;7.10;;;;;;;;;;5032975;28;20185;-72
2021/03/07 07:44:10;;;;;;;8.13;7.33;;;;;;;;;;5032855;28;20252;-71
2021/03/07 07:46:52;;;;;;;8.33;7.53;;;;;;;;;;5032636;28;20202;-72
2021/03/07 07:49:37;;;;;;;8.37;7.40;;;;;;;;;;5033763;28;20602;-71
2021/03/07 07:52:39;;;;;;;11.80;8.03;;;;;;;;;;5024902;28;20203;-71
2021/03/07 07:55:09;;;;;;;12.23;8.57;;;;;;;;;;4991750;28;20207;-71
2021/03/07 07:57:36;;;;;;;10.57;8.20;;;;;;;;;;5024099;28;20269;-72
2021/03/07 08:00:05;;;;;;;9.27;8.27;;;;;;;;;;5032667;28;20220;-72
2021/03/07 08:02:46;;;;;;;12.23;9.07;;;;;;;;;;5032133;28;20222;-72
2021/03/07 08:05:22;;;;;;;12.20;9.87;;;;;;;;;;5031081;28;20186;-70
2021/03/07 08:07:55;;;;;;;10.33;9.10;;;;;;;;;;5028819;28;20205;-72
2021/03/07 08:10:39;;;;;;;19.23;16.00;;;;;;;;;;5030729;28;20185;-71
2021/03/07 08:13:06;;;;;;;8.87;7.97;;;;;;;;;;5033091;28;20661;-72
2021/03/07 08:15:33;;;;;;;24.80;14.60;;;;;;;;;;5031676;28;20209;-72
2021/03/07 08:18:03;;;;;;;27.23;15.47;;;;;;;;;;5033251;28;20216;-71
2021/03/07 08:20:38;;;;;;;10.03;9.00;;;;;;;;;;5028986;28;20200;-71
2021/03/07 08:23:05;;;;;;;8.93;8.03;;;;;;;;;;5028742;28;20293;-73
2021/03/07 08:25:46;;;;;;;9.00;8.10;;;;;;;;;;5032671;28;20183;-71
2021/03/07 08:28:28;;;;;;;10.00;8.27;;;;;;;;;;5031922;28;20293;-72
2021/03/07 08:30:54;;;;;;;29.20;15.50;;;;;;;;;;5031844;28;20226;-72
2021/03/07 08:33:35;;;;;;;10.53;9.43;;;;;;;;;;5033044;28;20229;-72
2021/03/07 08:36:21;;;;;;;19.77;12.17;;;;;;;;;;5031454;28;20181;-72
2021/03/07 08:38:52;;;;;;;15.13;10.50;;;;;;;;;;5022429;28;20693;-73
2021/03/07 08:41:21;;;;;;;10.47;9.33;;;;;;;;;;5032832;28;20186;-72
2021/03/07 08:43:48;;;;;;;11.00;9.30;;;;;;;;;;5031467;28;20253;-72
2021/03/07 08:46:15;;;;;;;10.43;9.40;;;;;;;;;;5031492;28;20591;-72
2021/03/07 08:48:43;;;;;;;10.90;9.33;;;;;;;;;;5031267;28;20217;-72
2021/03/07 08:51:10;;;;;;;10.53;9.53;;;;;;;;;;5031493;28;20289;-72
2021/03/07 08:53:37;;;;;;;10.63;9.53;;;;;;;;;;5031250;28;20221;-72
2021/03/07 08:56:03;;;;;;;13.53;11.00;;;;;;;;;;5032731;28;20648;-72
2021/03/07 08:58:29;;;;;;;10.60;9.53;;;;;;;;;;5032743;28;20324;-72
2021/03/07 09:00:56;;;;;;;11.40;10.20;;;;;;;;;;5031186;28;20171;-72
2021/03/07 09:03:24;;;;;;;11.50;10.30;;;;;;;;;;5032577;28;20215;-72
2021/03/07 09:05:50;;;;;;;10.90;9.67;;;;;;;;;;5032640;28;20615;-72
2021/03/07 09:08:24;;;;;;;13.80;10.87;;;;;;;;;;5033082;28;20178;-72
2021/03/07 09:10:52;;;;;;;10.77;9.70;;;;;;;;;;5031910;28;20567;-72
2021/03/07 09:13:18;;;;;;;11.63;10.53;;;;;;;;;;5032199;28;20289;-74
2021/03/07 09:15:51;;;;;;;12.17;10.83;;;;;;;;;;5019774;28;20210;-73
2021/03/07 09:18:18;;;;;;;12.10;10.17;;;;;;;;;;5029175;28;20185;-73
2021/03/07 09:20:45;;;;;;;11.10;9.97;;;;;;;;;;5020156;28;20191;-73
2021/03/07 09:23:27;;;;;;;11.10;10.10;;;;;;;;;;5025060;28;20217;-72
2021/03/07 09:25:53;;;;;;;11.40;10.20;;;;;;;;;;5029745;28;20191;-73
2021/03/07 09:28:52;;;;;;;11.73;10.53;;;;;;;;;;5021860;28;20202;-73
2021/03/07 09:31:25;;;;;;;11.13;9.83;;;;;;;;;;4976351;28;20208;-73
2021/03/07 09:33:53;;;;;;;11.03;9.93;;;;;;;;;;5028686;28;20258;-72
2021/03/07 09:36:20;;;;;;;11.13;9.90;;;;;;;;;;5024880;28;20258;-73
2021/03/07 09:38:47;;;;;;;13.77;10.67;;;;;;;;;;5026838;28;20271;-73
2021/03/07 09:41:14;;;;;;;15.77;12.63;;;;;;;;;;5025366;28;20671;-73
2021/03/07 09:43:41;;;;;;;13.83;12.23;;;;;;;;;;5026637;28;20210;-73
2021/03/07 09:46:08;;;;;;;14.43;12.93;;;;;;;;;;5030862;28;20179;-73
2021/03/07 09:48:36;;;;;;;16.13;12.33;;;;;;;;;;5027578;28;20204;-73
2021/03/07 09:51:05;;;;;;;15.87;12.97;;;;;;;;;;5021945;28;20211;-73
2021/03/07 09:53:35;;;;;;;17.03;14.27;;;;;;;;;;5023414;28;20236;-73
2021/03/07 09:56:01;;;;;;;19.10;14.30;;;;;;;;;;5023005;28;20179;-73
2021/03/07 09:58:37;;;;;;;19.23;15.50;;;;;;;;;;5023234;28;20195;-73
2021/03/07 10:01:04;;;;;;;21.47;15.77;;;;;;;;;;5029438;28;20187;-72
2021/03/07 10:03:31;;;;;;;19.03;14.87;;;;;;;;;;5030033;28;20223;-72
2021/03/07 10:06:04;;;;;;;21.43;15.87;;;;;;;;;;5028367;28;20181;-72
2021/03/07 10:08:33;;;;;;;23.13;16.70;;;;;;;;;;5023781;28;20548;-73
2021/03/07 10:11:09;;;;;;;22.63;17.93;;;;;;;;;;5024568;28;20197;-73
2021/03/07 10:13:35;;;;;;;23.23;18.10;;;;;;;;;;5023967;28;20235;-72
2021/03/07 10:16:01;;;;;;;19.70;16.13;;;;;;;;;;5025511;28;20184;-73
2021/03/07 10:18:27;;;;;;;23.73;18.07;;;;;;;;;;5020299;28;20299;-73
2021/03/07 10:20:57;;;;;;;23.17;17.73;;;;;;;;;;5023802;28;20193;-73
2021/03/07 10:23:27;;;;;;;22.67;17.57;;;;;;;;;;5029834;28;20221;-73
2021/03/07 10:25:54;;;;;;;22.83;17.53;;;;;;;;;;5029052;28;20190;-73
2021/03/07 10:28:21;;;;;;;21.67;17.40;;;;;;;;;;5026234;28;20180;-73
2021/03/07 10:30:50;;;;;;;21.17;17.07;;;;;;;;;;5027035;28;20615;-73
2021/03/07 10:33:20;;;;;;;22.97;17.30;;;;;;;;;;5030967;28;20229;-73
2021/03/07 10:35:58;;;;;;;18.20;15.63;;;;;;;;;;5027481;28;20523;-73
2021/03/07 10:38:24;;;;;;;21.33;16.50;;;;;;;;;;5030160;28;20186;-73
2021/03/07 10:40:50;;;;;;;19.93;15.53;;;;;;;;;;5026486;28;20182;-73
2021/03/07 10:43:16;;;;;;;22.53;17.27;;;;;;;;;;5024532;28;20227;-73
2021/03/07 10:45:42;;;;;;;22.57;16.83;;;;;;;;;;5030162;28;20239;-73
2021/03/07 10:48:10;;;;;;;20.00;17.23;;;;;;;;;;5031001;28;20193;-73
2021/03/07 10:50:37;;;;;;;19.97;16.80;;;;;;;;;;5027403;28;20271;-74
2021/03/07 10:53:03;;;;;;;22.73;17.37;;;;;;;;;;5024254;28;20279;-73
2021/03/07 10:55:30;;;;;;;21.23;16.83;;;;;;;;;;5024158;28;20181;-72
2021/03/07 10:57:56;;;;;;;21.37;17.30;;;;;;;;;;5027013;28;20179;-73
2021/03/07 11:00:26;;;;;;;22.90;17.97;;;;;;;;;;5028253;28;20179;-72
2021/03/07 11:02:53;;;;;;;20.27;16.20;;;;;;;;;;5027034;28;20245;-73
2021/03/07 11:05:19;;;;;;;21.53;16.03;;;;;;;;;;5028067;28;20624;-73
2021/03/07 11:07:45;;;;;;;21.20;17.43;;;;;;;;;;5011159;28;20189;-72
2021/03/07 11:10:12;;;;;;;22.27;17.57;;;;;;;;;;5025418;28;20197;-73
2021/03/07 11:12:39;;;;;;;23.40;17.50;;;;;;;;;;5021077;28;20206;-73
2021/03/07 11:15:06;;;;;;;23.90;18.43;;;;;;;;;;5024296;28;20197;-74
2021/03/07 11:17:32;;;;;;;22.33;17.97;;;;;;;;;;5035563;28;20175;-73
2021/03/07 11:19:58;;;;;;;28.57;19.13;;;;;;;;;;5028524;28;20189;-73
2021/03/07 11:22:25;;;;;;;25.13;19.53;;;;;;;;;;5026791;28;20195;-73
2021/03/07 11:24:51;;;;;;;29.70;20.17;;;;;;;;;;5032284;28;20224;-73
2021/03/07 11:27:17;;;;;;;29.70;21.27;;;;;;;;;;5033201;28;20250;-73
2021/03/07 11:29:43;;;;;;;26.23;20.20;;;;;;;;;;5020290;28;20199;-72
2021/03/07 11:32:09;;;;;;;29.90;21.10;;;;;;;;;;5023164;28;20199;-72
2021/03/07 11:34:36;;;;;;;28.53;20.87;;;;;;;;;;5016720;28;20266;-72
2021/03/07 11:37:02;;;;;;;26.77;20.67;;;;;;;;;;5026768;28;20210;-72
2021/03/07 11:39:28;;;;;;;24.53;18.97;;;;;;;;;;5027756;28;20182;-72
2021/03/07 11:41:54;;;;;;;28.13;20.93;;;;;;;;;;5033904;28;20186;-72
2021/03/07 11:44:21;;;;;;;29.10;20.73;;;;;;;;;;5027398;28;20199;-72
2021/03/07 11:46:47;;;;;;;25.87;20.40;;;;;;;;;;5028593;28;20220;-73
2021/03/07 11:49:13;;;;;;;28.67;21.20;;;;;;;;;;5025843;28;20186;-73
2021/03/07 11:51:39;;;;;;;27.40;21.20;;;;;;;;;;5024284;28;20237;-73
2021/03/07 11:54:05;;;;;;;24.73;19.10;;;;;;;;;;5026849;28;20199;-73
2021/03/07 11:56:32;;;;;;;28.60;20.80;;;;;;;;;;5022982;28;20237;-72
2021/03/07 11:58:58;;;;;;;26.20;19.37;;;;;;;;;;5029757;28;20649;-72
2021/03/07 12:01:24;;;;;;;32.27;21.23;;;;;;;;;;5030127;28;20195;-73
2021/03/07 12:03:51;;;;;;;29.57;20.97;;;;;;;;;;5021276;28;20222;-73
2021/03/07 12:06:17;;;;;;;27.97;21.77;;;;;;;;;;5031881;28;20204;-73
2021/03/07 12:08:43;;;;;;;27.70;19.43;;;;;;;;;;5026555;28;20190;-73
2021/03/07 12:11:09;;;;;;;28.53;20.73;;;;;;;;;;5026693;28;20202;-73
2021/03/07 12:13:35;;;;;;;27.67;19.90;;;;;;;;;;5024798;28;20202;-74
2021/03/07 12:16:01;;;;;;;28.33;21.20;;;;;;;;;;5022271;28;20248;-71
2021/03/07 12:18:41;;;;;;;;;;;;;;;;;;;;;
2021/03/07 12:21:09;;;;;;;25.93;20.30;;;;;;;;;;5031412;28;20190;-75
2021/03/07 12:23:41;;;;;;;25.37;19.93;;;;;;;;;;5032991;28;20204;-75
2021/03/07 12:26:07;;;;;;;29.13;20.00;;;;;;;;;;5028459;28;20193;-75
2021/03/07 12:28:33;;;;;;;25.30;19.67;;;;;;;;;;5026527;28;20176;-75
2021/03/07 12:31:00;;;;;;;25.27;19.53;;;;;;;;;;5030853;28;20672;-75
2021/03/07 12:33:26;;;;;;;25.40;19.47;;;;;;;;;;5027768;28;20195;-76
2021/03/07 12:35:52;;;;;;;24.60;18.47;;;;;;;;;;5025391;28;20198;-75
2021/03/07 12:38:19;;;;;;;23.23;18.10;;;;;;;;;;5023332;28;20236;-75
2021/03/07 12:40:45;;;;;;;23.90;19.07;;;;;;;;;;5023748;28;20653;-75
2021/03/07 12:43:11;;;;;;;24.33;19.37;;;;;;;;;;5020835;28;20265;-76
2021/03/07 12:45:37;;;;;;;22.60;18.30;;;;;;;;;;5025487;28;20183;-76
2021/03/07 12:48:03;;;;;;;23.50;18.03;;;;;;;;;;5026481;28;20547;-75
2021/03/07 12:50:29;;;;;;;26.77;19.10;;;;;;;;;;5025028;28;20201;-75
2021/03/07 12:52:55;;;;;;;26.13;18.60;;;;;;;;;;5022343;28;20206;-75
2021/03/07 12:55:21;;;;;;;23.90;18.47;;;;;;;;;;5023905;28;20179;-76
2021/03/07 12:57:47;;;;;;;23.13;18.27;;;;;;;;;;5028249;28;20197;-75
2021/03/07 13:00:14;;;;;;;23.73;18.93;;;;;;;;;;5023764;28;20179;-75
2021/03/07 13:02:40;;;;;;;23.33;19.13;;;;;;;;;;5027558;28;20223;-75
2021/03/07 13:05:06;;;;;;;26.33;18.70;;;;;;;;;;5029780;28;20182;-76
2021/03/07 13:07:32;;;;;;;27.40;19.67;;;;;;;;;;5010980;28;20182;-75
2021/03/07 13:09:59;;;;;;;26.60;19.17;;;;;;;;;;5028618;28;20174;-75
2021/03/07 13:12:25;;;;;;;25.03;18.77;;;;;;;;;;5027824;28;20243;-75
2021/03/07 13:14:51;;;;;;;24.63;20.10;;;;;;;;;;5020647;28;20569;-76
2021/03/07 13:17:17;;;;;;;26.10;18.50;;;;;;;;;;5023745;28;20538;-75
2021/03/07 13:19:43;;;;;;;23.60;19.17;;;;;;;;;;5027357;28;20273;-76
2021/03/07 13:22:09;;;;;;;23.10;18.17;;;;;;;;;;5032138;28;20185;-76
2021/03/07 13:24:35;;;;;;;23.40;19.47;;;;;;;;;;5028351;28;20181;-76
2021/03/07 13:27:02;;;;;;;21.63;18.10;;;;;;;;;;5026603;28;20187;-76
2021/03/07 13:29:28;;;;;;;23.43;17.77;;;;;;;;;;5027355;28;20177;-74
2021/03/07 13:31:54;;;;;;;23.10;18.27;;;;;;;;;;5027800;28;20737;-76
2021/03/07 13:34:21;;;;;;;22.13;17.60;;;;;;;;;;5027143;28;20249;-75
2021/03/07 13:36:47;;;;;;;22.97;18.40;;;;;;;;;;5029652;28;20182;-75
2021/03/07 13:39:13;;;;;;;23.73;17.77;;;;;;;;;;5031692;28;20180;-76
2021/03/07 13:41:39;;;;;;;25.20;18.40;;;;;;;;;;5026048;28;20207;-76
2021/03/07 13:44:06;;;;;;;26.60;18.10;;;;;;;;;;5031267;28;20231;-74
2021/03/07 13:46:32;;;;;;;26.33;18.57;;;;;;;;;;5031160;28;20184;-76
2021/03/07 13:48:58;;;;;;;24.33;19.03;;;;;;;;;;5029723;28;20560;-75
2021/03/07 13:51:24;;;;;;;24.33;18.37;;;;;;;;;;5028216;28;20199;-75
2021/03/07 13:53:51;;;;;;;21.83;18.30;;;;;;;;;;5031503;28;20210;-75
2021/03/07 13:56:17;;;;;;;24.77;18.63;;;;;;;;;;5030155;28;20180;-75
2021/03/07 13:58:43;;;;;;;24.13;18.50;;;;;;;;;;5034821;28;20180;-74
2021/03/07 14:01:09;;;;;;;24.10;17.80;;;;;;;;;;5033787;28;20185;-75
2021/03/07 14:03:35;;;;;;;21.50;17.63;;;;;;;;;;5029495;28;20216;-74
2021/03/07 14:06:02;;;;;;;24.33;17.70;;;;;;;;;;5032967;28;20178;-74
2021/03/07 14:08:28;;;;;;;28.03;19.83;;;;;;;;;;5028915;28;20185;-74
2021/03/07 14:10:54;;;;;;;31.37;18.60;;;;;;;;;;5033274;28;20211;-74
2021/03/07 14:13:20;;;;;;;28.27;18.67;;;;;;;;;;5033971;28;20216;-75
2021/03/07 14:15:46;;;;;;;28.57;19.00;;;;;;;;;;5029849;28;20173;-74
2021/03/07 14:18:12;;;;;;;26.57;19.20;;;;;;;;;;5033548;28;20181;-75
2021/03/07 14:20:38;;;;;;;31.70;19.07;;;;;;;;;;5032932;28;20196;-74
2021/03/07 14:23:04;;;;;;;28.50;18.70;;;;;;;;;;5031921;28;20263;-74
2021/03/07 14:25:30;;;;;;;24.40;18.93;;;;;;;;;;5034367;28;20173;-76
2021/03/07 14:27:57;;;;;;;34.40;19.87;;;;;;;;;;5033600;28;20202;-77
2021/03/07 14:30:23;;;;;;;30.07;18.50;;;;;;;;;;5034852;28;20669;-75
2021/03/07 14:32:49;;;;;;;30.60;20.00;;;;;;;;;;5035215;28;20243;-76
2021/03/07 14:35:15;;;;;;;28.63;19.80;;;;;;;;;;5035299;28;20522;-75